sensor_id;sensor_type;location;lat;lon;timestamp;pressure;altitude;pressure_sealevel;temperature;humidity
52249;BME280;38541;48.130;8.378;2023-08-24T00:01:42;93108.75;;;19.15;64.97
52249;BME280;38541;48.130;8.378;2023-08-24T00:04:09;93112.34;;;19.10;65.19
52249;BME280;38541;48.130;8.378;2023-08-24T00:06:36;93107.63;;;19.07;65.37
52249;BME280;38541;48.130;8.378;2023-08-24T00:09:03;93103.38;;;19.06;65.24
52249;BME280;38541;48.130;8.378;2023-08-24T00:11:31;93099.16;;;19.05;65.43
52249;BME280;38541;48.130;8.378;2023-08-24T00:13:58;93101.03;;;19.05;65.36
52249;BME280;38541;48.130;8.378;2023-08-24T00:16:24;93098.19;;;19.01;65.54
52249;BME280;38541;48.130;8.378;2023-08-24T00:18:51;93097.41;;;19.01;65.39
52249;BME280;38541;48.130;8.378;2023-08-24T00:21:17;93093.66;;;19.02;65.22
52249;BME280;38541;48.130;8.378;2023-08-24T00:23:46;93089.91;;;19.03;65.38
52249;BME280;38541;48.130;8.378;2023-08-24T00:26:12;93093.16;;;19.00;65.69
52249;BME280;38541;48.130;8.378;2023-08-24T00:28:39;93096.09;;;18.98;65.46
52249;BME280;38541;48.130;8.378;2023-08-24T00:31:05;93088.44;;;18.96;65.28
52249;BME280;38541;48.130;8.378;2023-08-24T00:33:32;93088.72;;;18.95;65.86
52249;BME280;38541;48.130;8.378;2023-08-24T00:36:03;93090.28;;;18.96;65.87
52249;BME280;38541;48.130;8.378;2023-08-24T00:38:30;93074.22;;;19.01;65.64
52249;BME280;38541;48.130;8.378;2023-08-24T00:40:57;93073.72;;;18.99;65.42
52249;BME280;38541;48.130;8.378;2023-08-24T00:43:26;93066.81;;;18.98;65.23
52249;BME280;38541;48.130;8.378;2023-08-24T00:45:58;93066.94;;;18.93;65.02
52249;BME280;38541;48.130;8.378;2023-08-24T00:48:26;93062.34;;;18.85;65.31
52249;BME280;38541;48.130;8.378;2023-08-24T00:50:56;93066.25;;;18.78;65.05
52249;BME280;38541;48.130;8.378;2023-08-24T00:53:24;93063.91;;;18.77;65.59
52249;BME280;38541;48.130;8.378;2023-08-24T00:55:51;93062.50;;;18.79;65.23
52249;BME280;38541;48.130;8.378;2023-08-24T00:58:18;93060.91;;;18.78;65.12
52249;BME280;38541;48.130;8.378;2023-08-24T01:00:46;93055.72;;;18.73;64.92
52249;BME280;38541;48.130;8.378;2023-08-24T01:03:14;93055.06;;;18.67;65.25
52249;BME280;38541;48.130;8.378;2023-08-24T01:05:43;93049.28;;;18.65;65.44
52249;BME280;38541;48.130;8.378;2023-08-24T01:08:11;93055.63;;;18.56;65.79
52249;BME280;38541;48.130;8.378;2023-08-24T01:13:59;93044.84;;;18.61;66.31
52249;BME280;38541;48.130;8.378;2023-08-24T01:16:31;93048.13;;;18.58;65.62
52249;BME280;38541;48.130;8.378;2023-08-24T01:19:01;93046.38;;;18.53;65.83
52249;BME280;38541;48.130;8.378;2023-08-24T01:21:29;93045.88;;;18.51;65.62
52249;BME280;38541;48.130;8.378;2023-08-24T01:24:03;93048.69;;;18.46;66.17
52249;BME280;38541;48.130;8.378;2023-08-24T01:26:31;93051.16;;;18.42;66.47
52249;BME280;38541;48.130;8.378;2023-08-24T01:28:57;93048.34;;;18.38;66.33
52249;BME280;38541;48.130;8.378;2023-08-24T01:31:25;93043.91;;;18.34;66.39
52249;BME280;38541;48.130;8.378;2023-08-24T01:33:51;93043.91;;;18.34;66.52
52249;BME280;38541;48.130;8.378;2023-08-24T01:36:18;93038.59;;;18.34;66.68
52249;BME280;38541;48.130;8.378;2023-08-24T01:39:11;93030.31;;;18.35;66.82
52249;BME280;38541;48.130;8.378;2023-08-24T01:41:39;93027.34;;;18.37;66.83
52249;BME280;38541;48.130;8.378;2023-08-24T01:44:12;93027.34;;;18.37;66.88
52249;BME280;38541;48.130;8.378;2023-08-24T01:46:42;93024.97;;;18.35;67.09
52249;BME280;38541;48.130;8.378;2023-08-24T01:49:11;93021.06;;;18.33;66.91
52249;BME280;38541;48.130;8.378;2023-08-24T01:51:39;93023.34;;;18.25;67.31
52249;BME280;38541;48.130;8.378;2023-08-24T01:54:06;93016.47;;;18.24;67.13
52249;BME280;38541;48.130;8.378;2023-08-24T01:56:32;93013.19;;;18.28;67.47
52249;BME280;38541;48.130;8.378;2023-08-24T01:58:59;93007.28;;;18.31;67.36
52249;BME280;38541;48.130;8.378;2023-08-24T02:01:25;93001.97;;;18.31;67.79
52249;BME280;38541;48.130;8.378;2023-08-24T02:03:52;93004.13;;;18.29;67.40
52249;BME280;38541;48.130;8.378;2023-08-24T02:06:18;92999.59;;;18.29;67.70
52249;BME280;38541;48.130;8.378;2023-08-24T02:08:47;93000.97;;;18.27;67.79
52249;BME280;38541;48.130;8.378;2023-08-24T02:11:13;93002.56;;;18.28;67.74
52249;BME280;38541;48.130;8.378;2023-08-24T02:13:40;93002.56;;;18.28;67.63
52249;BME280;38541;48.130;8.378;2023-08-24T02:16:08;92992.53;;;18.24;67.62
52249;BME280;38541;48.130;8.378;2023-08-24T02:18:38;92993.63;;;18.23;67.75
52249;BME280;38541;48.130;8.378;2023-08-24T02:21:11;92985.63;;;18.23;68.03
52249;BME280;38541;48.130;8.378;2023-08-24T02:23:39;92987.22;;;18.24;68.00
52249;BME280;38541;48.130;8.378;2023-08-24T02:26:06;92988.78;;;18.25;68.07
52249;BME280;38541;48.130;8.378;2023-08-24T02:28:33;92984.53;;;18.24;68.13
52249;BME280;38541;48.130;8.378;2023-08-24T02:31:04;92987.81;;;18.21;68.50
52249;BME280;38541;48.130;8.378;2023-08-24T02:33:31;92990.47;;;18.21;68.65
52249;BME280;38541;48.130;8.378;2023-08-24T02:35:58;92987.22;;;18.24;68.47
52249;BME280;38541;48.130;8.378;2023-08-24T02:38:24;92993.47;;;18.20;68.65
52249;BME280;38541;48.130;8.378;2023-08-24T02:41:05;92988.72;;;18.17;69.09
52249;BME280;38541;48.130;8.378;2023-08-24T02:43:33;92988.72;;;18.17;68.94
52249;BME280;38541;48.130;8.378;2023-08-24T02:46:01;92983.84;;;18.10;68.93
52249;BME280;38541;48.130;8.378;2023-08-24T02:48:30;92977.44;;;18.11;69.27
52249;BME280;38541;48.130;8.378;2023-08-24T02:50:57;92985.91;;;18.13;69.51
52249;BME280;38541;48.130;8.378;2023-08-24T02:53:25;92981.34;;;18.14;69.52
52249;BME280;38541;48.130;8.378;2023-08-24T02:55:51;92987.28;;;18.10;69.54
52249;BME280;38541;48.130;8.378;2023-08-24T02:58:18;92985.41;;;18.11;69.96
52249;BME280;38541;48.130;8.378;2023-08-24T03:00:44;92988.25;;;18.15;69.53
52249;BME280;38541;48.130;8.378;2023-08-24T03:03:11;92988.44;;;18.18;69.66
52249;BME280;38541;48.130;8.378;2023-08-24T03:05:37;92983.13;;;18.18;69.84
52249;BME280;38541;48.130;8.378;2023-08-24T03:08:04;92987.47;;;18.14;69.69
52249;BME280;38541;48.130;8.378;2023-08-24T03:10:34;92982.16;;;18.14;69.57
52249;BME280;38541;48.130;8.378;2023-08-24T03:13:01;92978.56;;;18.19;69.54
52249;BME280;38541;48.130;8.378;2023-08-24T03:15:29;92970.00;;;18.22;69.33
52249;BME280;38541;48.130;8.378;2023-08-24T03:17:56;92959.53;;;18.25;69.50
52249;BME280;38541;48.130;8.378;2023-08-24T03:20:23;92953.47;;;18.34;69.31
52249;BME280;38541;48.130;8.378;2023-08-24T03:22:49;92952.88;;;18.37;69.15
52249;BME280;38541;48.130;8.378;2023-08-24T03:25:15;92947.38;;;18.33;69.78
52249;BME280;38541;48.130;8.378;2023-08-24T03:27:42;92944.22;;;18.31;69.40
52249;BME280;38541;48.130;8.378;2023-08-24T03:30:09;92946.13;;;18.31;69.53
52249;BME280;38541;48.130;8.378;2023-08-24T03:32:35;92947.69;;;18.32;69.48
52249;BME280;38541;48.130;8.378;2023-08-24T03:35:02;92947.22;;;18.30;69.68
52249;BME280;38541;48.130;8.378;2023-08-24T03:37:29;92953.59;;;18.29;69.48
52249;BME280;38541;48.130;8.378;2023-08-24T03:39:56;92952.53;;;18.30;69.96
52249;BME280;38541;48.130;8.378;2023-08-24T03:42:22;92941.09;;;18.29;69.95
52249;BME280;38541;48.130;8.378;2023-08-24T03:44:49;92936.56;;;18.30;69.97
52249;BME280;38541;48.130;8.378;2023-08-24T03:47:16;92934.97;;;18.29;69.95
52249;BME280;38541;48.130;8.378;2023-08-24T03:49:43;92940.91;;;18.25;69.93
52249;BME280;38541;48.130;8.378;2023-08-24T03:52:10;92945.13;;;18.27;69.79
52249;BME280;38541;48.130;8.378;2023-08-24T03:54:40;92939.34;;;18.24;69.74
52249;BME280;38541;48.130;8.378;2023-08-24T03:57:06;92937.72;;;18.15;69.47
52249;BME280;38541;48.130;8.378;2023-08-24T03:59:34;92936.47;;;18.12;69.75
52249;BME280;38541;48.130;8.378;2023-08-24T04:02:01;92933.81;;;18.12;69.81
52249;BME280;38541;48.130;8.378;2023-08-24T04:04:30;92930.16;;;18.08;70.29
52249;BME280;38541;48.130;8.378;2023-08-24T04:06:56;92936.09;;;18.05;70.45
52249;BME280;38541;48.130;8.378;2023-08-24T04:09:23;92937.50;;;18.02;70.47
52249;BME280;38541;48.130;8.378;2023-08-24T04:11:50;92934.16;;;17.96;70.31
52249;BME280;38541;48.130;8.378;2023-08-24T04:14:17;92931.97;;;17.99;70.94
52249;BME280;38541;48.130;8.378;2023-08-24T04:16:43;92927.13;;;18.01;71.14
52249;BME280;38541;48.130;8.378;2023-08-24T04:19:10;92933.44;;;18.05;71.55
52249;BME280;38541;48.130;8.378;2023-08-24T04:21:36;92930.00;;;18.04;70.88
52249;BME280;38541;48.130;8.378;2023-08-24T04:24:03;92935.09;;;18.01;70.87
52249;BME280;38541;48.130;8.378;2023-08-24T04:26:30;92928.03;;;17.96;71.27
52249;BME280;38541;48.130;8.378;2023-08-24T04:28:57;92930.41;;;17.97;71.31
52249;BME280;38541;48.130;8.378;2023-08-24T04:31:24;92925.09;;;17.97;70.94
52249;BME280;38541;48.130;8.378;2023-08-24T04:33:50;92923.03;;;17.94;71.46
52249;BME280;38541;48.130;8.378;2023-08-24T04:36:17;92921.34;;;17.99;71.47
52249;BME280;38541;48.130;8.378;2023-08-24T04:38:43;92926.56;;;18.04;71.81
52249;BME280;38541;48.130;8.378;2023-08-24T04:41:12;92915.31;;;18.07;71.72
52249;BME280;38541;48.130;8.378;2023-08-24T04:43:39;92919.09;;;18.15;71.54
52249;BME280;38541;48.130;8.378;2023-08-24T04:46:05;92916.16;;;18.16;70.63
52249;BME280;38541;48.130;8.378;2023-08-24T04:48:32;92920.84;;;18.19;70.85
52249;BME280;38541;48.130;8.378;2023-08-24T04:51:01;92915.34;;;18.16;70.94
52249;BME280;38541;48.130;8.378;2023-08-24T04:53:29;92919.91;;;18.15;71.18
52249;BME280;38541;48.130;8.378;2023-08-24T04:55:55;92919.59;;;18.17;70.88
52249;BME280;38541;48.130;8.378;2023-08-24T04:58:22;92921.47;;;18.16;71.07
52249;BME280;38541;48.130;8.378;2023-08-24T05:00:49;92920.72;;;18.24;71.17
52249;BME280;38541;48.130;8.378;2023-08-24T05:03:16;92917.16;;;18.29;71.05
52249;BME280;38541;48.130;8.378;2023-08-24T05:05:42;92920.47;;;18.35;70.96
52249;BME280;38541;48.130;8.378;2023-08-24T05:08:09;92913.09;;;18.32;70.86
52249;BME280;38541;48.130;8.378;2023-08-24T05:10:39;92914.19;;;18.31;70.83
52249;BME280;38541;48.130;8.378;2023-08-24T05:13:05;92913.69;;;18.29;70.90
52249;BME280;38541;48.130;8.378;2023-08-24T05:15:32;92914.00;;;18.27;70.60
52249;BME280;38541;48.130;8.378;2023-08-24T05:17:58;92909.97;;;18.30;70.54
52249;BME280;38541;48.130;8.378;2023-08-24T05:20:26;92910.91;;;18.34;71.12
52249;BME280;38541;48.130;8.378;2023-08-24T05:22:53;92906.56;;;18.38;71.35
52249;BME280;38541;48.130;8.378;2023-08-24T05:25:22;92906.41;;;18.43;71.14
52249;BME280;38541;48.130;8.378;2023-08-24T05:27:49;92907.69;;;18.46;70.92
52249;BME280;38541;48.130;8.378;2023-08-24T05:30:17;92907.88;;;18.49;71.13
52249;BME280;38541;48.130;8.378;2023-08-24T05:32:43;92911.47;;;18.53;71.75
52249;BME280;38541;48.130;8.378;2023-08-24T05:35:10;92907.56;;;18.60;71.68
52249;BME280;38541;48.130;8.378;2023-08-24T05:37:37;92906.19;;;18.62;71.48
52249;BME280;38541;48.130;8.378;2023-08-24T05:40:04;92906.84;;;18.68;71.77
52249;BME280;38541;48.130;8.378;2023-08-24T05:42:31;92903.88;;;18.78;71.89
52249;BME280;38541;48.130;8.378;2023-08-24T05:44:58;92905.00;;;18.86;71.85
52249;BME280;38541;48.130;8.378;2023-08-24T05:47:24;92906.72;;;18.91;72.20
52249;BME280;38541;48.130;8.378;2023-08-24T05:49:51;92914.88;;;18.94;71.71
52249;BME280;38541;48.130;8.378;2023-08-24T05:52:17;92908.66;;;18.99;71.52
52249;BME280;38541;48.130;8.378;2023-08-24T05:54:44;92909.00;;;19.06;71.89
52249;BME280;38541;48.130;8.378;2023-08-24T05:57:10;92909.59;;;19.12;71.63
52249;BME280;38541;48.130;8.378;2023-08-24T05:59:37;92906.66;;;19.22;71.75
52249;BME280;38541;48.130;8.378;2023-08-24T06:02:03;92902.72;;;19.29;71.17
52249;BME280;38541;48.130;8.378;2023-08-24T06:04:30;92908.22;;;19.32;70.39
52249;BME280;38541;48.130;8.378;2023-08-24T06:06:57;92895.84;;;19.36;70.50
52249;BME280;38541;48.130;8.378;2023-08-24T06:09:23;92901.00;;;19.42;70.77
52249;BME280;38541;48.130;8.378;2023-08-24T06:11:50;92900.25;;;19.50;71.38
52249;BME280;38541;48.130;8.378;2023-08-24T06:14:16;92897.41;;;19.55;71.28
52249;BME280;38541;48.130;8.378;2023-08-24T06:16:43;92896.31;;;19.56;71.07
52249;BME280;38541;48.130;8.378;2023-08-24T06:19:10;92899.78;;;19.65;71.53
52249;BME280;38541;48.130;8.378;2023-08-24T06:21:36;92892.69;;;19.70;71.38
52249;BME280;38541;48.130;8.378;2023-08-24T06:24:03;92891.44;;;19.76;71.19
52249;BME280;38541;48.130;8.378;2023-08-24T06:26:30;92885.78;;;19.86;70.92
52249;BME280;38541;48.130;8.378;2023-08-24T06:28:56;92890.97;;;19.91;70.74
52249;BME280;38541;48.130;8.378;2023-08-24T06:31:23;92890.03;;;19.96;71.28
52249;BME280;38541;48.130;8.378;2023-08-24T06:33:49;92892.53;;;20.01;70.96
52249;BME280;38541;48.130;8.378;2023-08-24T06:36:16;92888.28;;;20.09;70.83
52249;BME280;38541;48.130;8.378;2023-08-24T06:38:43;92895.31;;;20.14;71.22
52249;BME280;38541;48.130;8.378;2023-08-24T06:41:09;92897.81;;;20.19;70.79
52249;BME280;38541;48.130;8.378;2023-08-24T06:43:38;92904.25;;;20.18;70.72
52249;BME280;38541;48.130;8.378;2023-08-24T06:46:06;92902.34;;;20.27;71.48
52249;BME280;38541;48.130;8.378;2023-08-24T06:48:35;92904.84;;;20.32;70.48
52249;BME280;38541;48.130;8.378;2023-08-24T06:51:02;92909.50;;;20.44;70.07
52249;BME280;38541;48.130;8.378;2023-08-24T06:53:28;92903.81;;;20.55;70.10
52249;BME280;38541;48.130;8.378;2023-08-24T06:55:55;92905.03;;;20.66;69.77
52249;BME280;38541;48.130;8.378;2023-08-24T06:58:22;92902.78;;;20.77;69.50
52249;BME280;38541;48.130;8.378;2023-08-24T07:00:49;92900.25;;;20.89;70.04
52249;BME280;38541;48.130;8.378;2023-08-24T07:03:17;92902.88;;;20.98;70.10
52249;BME280;38541;48.130;8.378;2023-08-24T07:05:45;92909.56;;;21.04;70.03
52249;BME280;38541;48.130;8.378;2023-08-24T07:08:12;92909.72;;;21.08;70.67
52249;BME280;38541;48.130;8.378;2023-08-24T07:10:39;92909.06;;;21.11;71.21
52249;BME280;38541;48.130;8.378;2023-08-24T07:13:07;92908.16;;;21.07;71.25
52249;BME280;38541;48.130;8.378;2023-08-24T07:15:34;92912.06;;;21.09;71.06
52249;BME280;38541;48.130;8.378;2023-08-24T07:18:02;92906.84;;;21.13;71.38
52249;BME280;38541;48.130;8.378;2023-08-24T07:20:29;92913.25;;;21.21;71.63
52249;BME280;38541;48.130;8.378;2023-08-24T07:22:55;92911.94;;;21.27;71.88
52249;BME280;38541;48.130;8.378;2023-08-24T07:25:24;92904.66;;;21.36;71.21
52249;BME280;38541;48.130;8.378;2023-08-24T07:27:50;92906.03;;;21.43;71.03
52249;BME280;38541;48.130;8.378;2023-08-24T07:30:17;92910.53;;;21.51;70.74
52249;BME280;38541;48.130;8.378;2023-08-24T07:32:58;92900.22;;;21.62;70.36
52249;BME280;38541;48.130;8.378;2023-08-24T07:35:25;92904.41;;;21.72;69.95
52249;BME280;38541;48.130;8.378;2023-08-24T07:37:52;92905.31;;;21.76;70.78
52249;BME280;38541;48.130;8.378;2023-08-24T07:40:19;92904.78;;;21.83;71.27
52249;BME280;38541;48.130;8.378;2023-08-24T07:42:47;92900.78;;;21.89;71.61
52249;BME280;38541;48.130;8.378;2023-08-24T07:45:14;92904.06;;;21.94;72.30
52249;BME280;38541;48.130;8.378;2023-08-24T07:47:41;92900.06;;;22.01;72.63
52249;BME280;38541;48.130;8.378;2023-08-24T07:50:09;92899.19;;;22.09;72.83
52249;BME280;38541;48.130;8.378;2023-08-24T07:52:37;92897.19;;;22.18;72.19
52249;BME280;38541;48.130;8.378;2023-08-24T07:55:05;92901.66;;;22.27;70.86
52249;BME280;38541;48.130;8.378;2023-08-24T07:57:36;92888.97;;;22.36;70.69
52249;BME280;38541;48.130;8.378;2023-08-24T08:00:04;92889.34;;;22.47;70.15
52249;BME280;38541;48.130;8.378;2023-08-24T08:02:40;92894.06;;;22.62;69.98
52249;BME280;38541;48.130;8.378;2023-08-24T08:05:07;92890.28;;;22.76;69.73
52249;BME280;38541;48.130;8.378;2023-08-24T08:07:34;92892.28;;;22.91;69.06
52249;BME280;38541;48.130;8.378;2023-08-24T08:10:01;92895.75;;;23.04;68.42
52249;BME280;38541;48.130;8.378;2023-08-24T08:12:27;92894.94;;;23.16;68.28
52249;BME280;38541;48.130;8.378;2023-08-24T08:14:55;92885.13;;;23.33;67.90
52249;BME280;38541;48.130;8.378;2023-08-24T08:17:22;92881.69;;;23.48;68.09
52249;BME280;38541;48.130;8.378;2023-08-24T08:19:54;92884.47;;;23.64;67.15
52249;BME280;38541;48.130;8.378;2023-08-24T08:22:20;92885.19;;;23.77;66.86
52249;BME280;38541;48.130;8.378;2023-08-24T08:24:47;92888.97;;;23.89;66.17
52249;BME280;38541;48.130;8.378;2023-08-24T08:27:14;92891.00;;;24.08;65.77
52249;BME280;38541;48.130;8.378;2023-08-24T08:29:40;92891.53;;;24.14;63.69
52249;BME280;38541;48.130;8.378;2023-08-24T08:32:06;92897.34;;;24.32;64.74
52249;BME280;38541;48.130;8.378;2023-08-24T08:34:34;92889.94;;;24.41;64.16
52249;BME280;38541;48.130;8.378;2023-08-24T08:37:00;92886.56;;;24.44;63.49
52249;BME280;38541;48.130;8.378;2023-08-24T08:39:27;92891.66;;;24.49;63.49
52249;BME280;38541;48.130;8.378;2023-08-24T08:41:53;92895.91;;;24.50;63.44
52249;BME280;38541;48.130;8.378;2023-08-24T08:44:21;92894.53;;;24.57;63.38
52249;BME280;38541;48.130;8.378;2023-08-24T08:46:49;92892.63;;;24.73;62.89
52249;BME280;38541;48.130;8.378;2023-08-24T08:49:16;92892.22;;;24.87;62.00
52249;BME280;38541;48.130;8.378;2023-08-24T08:51:43;92894.72;;;24.96;61.98
52249;BME280;38541;48.130;8.378;2023-08-24T08:54:11;92885.53;;;24.97;61.91
52249;BME280;38541;48.130;8.378;2023-08-24T08:56:38;92888.81;;;24.90;61.98
52249;BME280;38541;48.130;8.378;2023-08-24T08:59:07;92884.91;;;24.88;61.64
52249;BME280;38541;48.130;8.378;2023-08-24T09:01:34;92888.31;;;24.85;61.96
52249;BME280;38541;48.130;8.378;2023-08-24T09:04:01;92883.06;;;24.92;61.87
52249;BME280;38541;48.130;8.378;2023-08-24T09:06:28;92882.31;;;24.91;61.48
52249;BME280;38541;48.130;8.378;2023-08-24T09:08:56;92874.75;;;24.97;61.61
52249;BME280;38541;48.130;8.378;2023-08-24T09:11:23;92871.81;;;25.02;61.52
52249;BME280;38541;48.130;8.378;2023-08-24T09:13:50;92867.38;;;25.10;62.13
52249;BME280;38541;48.130;8.378;2023-08-24T09:16:17;92867.59;;;25.21;61.28
52249;BME280;38541;48.130;8.378;2023-08-24T09:18:46;92868.19;;;25.30;61.54
52249;BME280;38541;48.130;8.378;2023-08-24T09:21:14;92871.03;;;25.38;60.85
52249;BME280;38541;48.130;8.378;2023-08-24T09:23:45;92866.91;;;25.44;61.43
52249;BME280;38541;48.130;8.378;2023-08-24T09:26:30;92872.41;;;25.47;60.20
52249;BME280;38541;48.130;8.378;2023-08-24T09:28:57;92858.31;;;25.54;59.55
52249;BME280;38541;48.130;8.378;2023-08-24T09:31:35;92863.13;;;25.64;60.25
52249;BME280;38541;48.130;8.378;2023-08-24T09:34:03;92862.06;;;25.69;59.36
52249;BME280;38541;48.130;8.378;2023-08-24T09:36:34;92847.19;;;25.75;59.41
52249;BME280;38541;48.130;8.378;2023-08-24T09:39:02;92837.34;;;25.83;59.37
52249;BME280;38541;48.130;8.378;2023-08-24T09:41:50;92839.09;;;25.95;60.27
52249;BME280;38541;48.130;8.378;2023-08-24T09:44:17;92835.31;;;26.00;60.14
52249;BME280;38541;48.130;8.378;2023-08-24T09:46:44;92826.94;;;26.05;58.61
52249;BME280;38541;48.130;8.378;2023-08-24T09:49:11;92824.47;;;26.16;58.53
52249;BME280;38541;48.130;8.378;2023-08-24T09:51:39;92831.19;;;26.26;58.06
52249;BME280;38541;48.130;8.378;2023-08-24T09:54:08;92820.59;;;26.37;57.72
52249;BME280;38541;48.130;8.378;2023-08-24T09:56:37;92824.28;;;26.52;58.22
52249;BME280;38541;48.130;8.378;2023-08-24T09:59:11;92817.88;;;26.60;57.09
52249;BME280;38541;48.130;8.378;2023-08-24T10:01:41;92814.16;;;26.68;57.00
52249;BME280;38541;48.130;8.378;2023-08-24T10:04:09;92813.53;;;26.78;56.63
52249;BME280;38541;48.130;8.378;2023-08-24T10:06:38;92803.31;;;26.88;56.49
52249;BME280;38541;48.130;8.378;2023-08-24T10:09:07;92807.69;;;27.00;56.32
52249;BME280;38541;48.130;8.378;2023-08-24T10:11:39;92802.84;;;27.13;55.97
52249;BME280;38541;48.130;8.378;2023-08-24T10:14:31;92801.56;;;27.33;56.16
52249;BME280;38541;48.130;8.378;2023-08-24T10:16:58;92806.00;;;27.49;54.90
52249;BME280;38541;48.130;8.378;2023-08-24T10:19:25;92803.91;;;27.66;54.34
52249;BME280;38541;48.130;8.378;2023-08-24T10:21:53;92797.50;;;27.81;54.09
52249;BME280;38541;48.130;8.378;2023-08-24T10:24:20;92789.22;;;28.01;52.91
52249;BME280;38541;48.130;8.378;2023-08-24T10:26:47;92792.78;;;28.12;52.21
52249;BME280;38541;48.130;8.378;2023-08-24T10:29:16;92792.19;;;28.30;53.35
52249;BME280;38541;48.130;8.378;2023-08-24T10:31:43;92788.53;;;28.53;52.79
52249;BME280;38541;48.130;8.378;2023-08-24T10:34:10;92793.25;;;28.70;51.88
52249;BME280;38541;48.130;8.378;2023-08-24T10:36:40;92784.53;;;28.88;52.33
52249;BME280;38541;48.130;8.378;2023-08-24T10:39:07;92781.13;;;29.05;50.70
52249;BME280;38541;48.130;8.378;2023-08-24T10:41:53;92772.72;;;29.25;50.34
52249;BME280;38541;48.130;8.378;2023-08-24T10:44:25;92777.81;;;29.38;50.77
52249;BME280;38541;48.130;8.378;2023-08-24T10:47:20;92779.06;;;29.51;49.49
52249;BME280;38541;48.130;8.378;2023-08-24T10:52:24;92771.41;;;29.86;48.16
52249;BME280;38541;48.130;8.378;2023-08-24T10:54:54;92774.13;;;29.97;48.25
52249;BME280;38541;48.130;8.378;2023-08-24T10:57:25;92766.84;;;30.08;48.09
52249;BME280;38541;48.130;8.378;2023-08-24T11:00:07;92777.28;;;30.21;48.19
52249;BME280;38541;48.130;8.378;2023-08-24T11:02:45;92769.94;;;30.25;47.04
52249;BME280;38541;48.130;8.378;2023-08-24T11:05:27;92765.28;;;30.29;47.23
52249;BME280;38541;48.130;8.378;2023-08-24T11:13:12;92761.38;;;30.01;47.44
52249;BME280;38541;48.130;8.378;2023-08-24T11:15:46;92759.03;;;29.96;47.69
52249;BME280;38541;48.130;8.378;2023-08-24T11:18:14;92757.94;;;30.18;47.66
52249;BME280;38541;48.130;8.378;2023-08-24T11:20:45;92759.09;;;30.32;47.91
52249;BME280;38541;48.130;8.378;2023-08-24T11:23:12;92756.78;;;30.38;45.97
52249;BME280;38541;48.130;8.378;2023-08-24T11:25:40;92751.34;;;30.45;47.15
52249;BME280;38541;48.130;8.378;2023-08-24T11:28:07;92749.81;;;30.48;46.85
52249;BME280;38541;48.130;8.378;2023-08-24T11:30:34;92745.13;;;30.70;47.72
52249;BME280;38541;48.130;8.378;2023-08-24T11:33:02;92744.72;;;30.89;46.58
52249;BME280;38541;48.130;8.378;2023-08-24T11:35:35;92741.25;;;30.74;44.79
52249;BME280;38541;48.130;8.378;2023-08-24T11:38:02;92730.31;;;31.07;45.35
52249;BME280;38541;48.130;8.378;2023-08-24T11:40:28;92739.28;;;31.00;46.49
52249;BME280;38541;48.130;8.378;2023-08-24T11:42:58;92742.22;;;31.46;45.54
52249;BME280;38541;48.130;8.378;2023-08-24T11:45:31;92734.88;;;31.43;42.99
52249;BME280;38541;48.130;8.378;2023-08-24T11:48:02;92741.09;;;31.33;45.44
52249;BME280;38541;48.130;8.378;2023-08-24T11:50:32;92730.25;;;31.33;45.92
52249;BME280;38541;48.130;8.378;2023-08-24T11:52:58;92734.81;;;31.54;45.53
52249;BME280;38541;48.130;8.378;2023-08-24T11:55:25;92732.03;;;31.65;44.25
52249;BME280;38541;48.130;8.378;2023-08-24T11:57:52;92724.25;;;31.67;44.68
52249;BME280;38541;48.130;8.378;2023-08-24T12:00:20;92730.97;;;31.48;44.68
52249;BME280;38541;48.130;8.378;2023-08-24T12:02:48;92724.06;;;31.25;44.10
52249;BME280;38541;48.130;8.378;2023-08-24T12:05:25;92729.50;;;31.17;44.30
52249;BME280;38541;48.130;8.378;2023-08-24T12:07:53;92734.19;;;31.21;45.48
52249;BME280;38541;48.130;8.378;2023-08-24T12:10:21;92729.13;;;31.19;45.03
52249;BME280;38541;48.130;8.378;2023-08-24T12:12:48;92740.44;;;30.99;45.48
52249;BME280;38541;48.130;8.378;2023-08-24T12:15:16;92728.84;;;30.92;44.94
52249;BME280;38541;48.130;8.378;2023-08-24T12:17:44;92729.25;;;30.83;44.70
52249;BME280;38541;48.130;8.378;2023-08-24T12:20:22;92724.97;;;30.82;46.42
52249;BME280;38541;48.130;8.378;2023-08-24T12:22:54;92725.34;;;30.91;53.15
52249;BME280;38541;48.130;8.378;2023-08-24T12:25:24;92718.75;;;30.92;54.56
52249;BME280;38541;48.130;8.378;2023-08-24T12:27:52;92719.44;;;31.11;53.98
52249;BME280;38541;48.130;8.378;2023-08-24T12:30:20;92713.97;;;31.33;54.01
52249;BME280;38541;48.130;8.378;2023-08-24T12:32:49;92711.47;;;31.64;52.66
52249;BME280;38541;48.130;8.378;2023-08-24T12:35:19;92705.03;;;32.07;55.01
52249;BME280;38541;48.130;8.378;2023-08-24T12:37:45;92708.75;;;32.24;52.10
52249;BME280;38541;48.130;8.378;2023-08-24T12:40:12;92699.41;;;32.25;50.20
52249;BME280;38541;48.130;8.378;2023-08-24T12:42:39;92696.75;;;32.67;46.76
52249;BME280;38541;48.130;8.378;2023-08-24T12:45:06;92696.03;;;32.59;46.07
52249;BME280;38541;48.130;8.378;2023-08-24T12:47:32;92689.97;;;32.44;43.90
52249;BME280;38541;48.130;8.378;2023-08-24T12:50:01;92684.91;;;32.46;42.41
52249;BME280;38541;48.130;8.378;2023-08-24T12:52:27;92684.81;;;32.95;43.56
52249;BME280;38541;48.130;8.378;2023-08-24T12:54:54;92684.94;;;32.81;42.33
52249;BME280;38541;48.130;8.378;2023-08-24T12:57:20;92679.25;;;33.03;42.84
52249;BME280;38541;48.130;8.378;2023-08-24T12:59:47;92683.25;;;32.94;42.59
52249;BME280;38541;48.130;8.378;2023-08-24T13:02:13;92680.44;;;32.63;43.24
52249;BME280;38541;48.130;8.378;2023-08-24T13:04:54;92670.94;;;32.44;41.75
52249;BME280;38541;48.130;8.378;2023-08-24T13:07:21;92668.50;;;32.53;40.79
52249;BME280;38541;48.130;8.378;2023-08-24T13:09:48;92665.19;;;32.73;44.01
52249;BME280;38541;48.130;8.378;2023-08-24T13:12:14;92657.31;;;32.82;42.52
52249;BME280;38541;48.130;8.378;2023-08-24T13:14:41;92644.16;;;33.12;42.16
52249;BME280;38541;48.130;8.378;2023-08-24T13:17:07;92651.53;;;33.74;39.81